Moyer Aviation Incorporated

Pocono Mountains Airport

188 Airport Rd. Tobyhanna, PA 18466 

P: 570-839-7161
800-321-5890
F: 570-839-7162

Weather

Weather

Pocono Weather

KMPO 241953Z AUTO 27010G19KT 10SM FEW070 23/12 A2987 RMK AO2 SLP102 T02330117

Allentown Weather

KABE 241951Z 29011KT 10SM FEW070 29/14 A2982 RMK AO2 SLP093 T02890144

Wilkes-Barre Weather

KAVP 241954Z 23008KT 10SM FEW070 28/13 A2981 RMK AO2 SLP085 T02830128


* required field

Contact Us